createdAt,value
2023-01-27T00:03:56.418Z,90.62
2023-01-27T00:08:59.300Z,90.58
2023-01-27T00:14:02.409Z,90.46
2023-01-27T00:19:05.712Z,90.47
2023-01-27T00:24:31.651Z,90.49
2023-01-27T00:29:37.737Z,90.50
2023-01-27T00:34:42.166Z,90.62
2023-01-27T00:39:45.068Z,90.79
2023-01-27T00:45:06.809Z,90.88
2023-01-27T00:50:10.512Z,90.87
2023-01-27T00:55:16.299Z,90.82
2023-01-27T01:00:19.298Z,90.67
2023-01-27T01:05:22.718Z,90.74
2023-01-27T01:10:26.024Z,90.77
2023-01-27T01:15:29.037Z,90.76
2023-01-27T01:20:36.434Z,90.78
2023-01-27T01:25:39.925Z,90.78
2023-01-27T01:30:42.968Z,90.81
2023-01-27T01:35:46.160Z,90.77
2023-01-27T01:40:49.276Z,90.61
2023-01-27T01:45:56.364Z,90.57
2023-01-27T01:51:01.929Z,90.59
2023-01-27T01:56:08.728Z,90.51
2023-01-27T02:01:13.619Z,90.50
2023-01-27T02:06:17.183Z,90.53
2023-01-27T02:11:20.710Z,90.57
2023-01-27T02:16:23.923Z,90.59
2023-01-27T02:21:27.016Z,90.60
2023-01-27T02:26:59.815Z,90.59
2023-01-27T02:32:03.021Z,90.62
2023-01-27T02:37:08.688Z,90.61
2023-01-27T02:42:14.147Z,90.68
2023-01-27T02:47:17.252Z,90.72
2023-01-27T02:52:20.876Z,90.68
2023-01-27T02:57:23.772Z,90.72
2023-01-27T03:02:30.789Z,90.80
2023-01-27T03:07:33.873Z,90.99
2023-01-27T03:12:37.183Z,91.14
2023-01-27T03:17:59.028Z,91.15
2023-01-27T03:23:02.033Z,91.17
2023-01-27T03:28:05.239Z,91.14
2023-01-27T03:33:08.144Z,91.15
2023-01-27T03:38:31.828Z,91.15
2023-01-27T03:43:54.085Z,91.19
2023-01-27T03:48:57.083Z,91.20
2023-01-27T03:54:01.211Z,91.19
2023-01-27T03:59:04.379Z,91.16
2023-01-27T04:04:26.064Z,91.11
2023-01-27T04:09:30.811Z,91.12
2023-01-27T04:14:33.709Z,91.13
2023-01-27T04:19:36.713Z,91.09
2023-01-27T04:24:39.816Z,91.09
2023-01-27T04:29:42.856Z,91.10
2023-01-27T04:34:45.821Z,91.09
2023-01-27T04:39:48.928Z,91.07
2023-01-27T04:44:52.137Z,91.02
2023-01-27T04:49:55.243Z,90.91
2023-01-27T04:54:58.063Z,90.84
2023-01-27T05:00:01.043Z,90.83
2023-01-27T05:05:05.319Z,90.91
2023-01-27T05:10:08.693Z,91.00
2023-01-27T05:15:12.181Z,91.02
2023-01-27T05:20:15.718Z,91.03
2023-01-27T05:25:19.127Z,91.05
2023-01-27T05:30:22.544Z,91.10
2023-01-27T05:35:25.554Z,91.14
2023-01-27T05:40:28.623Z,91.14
2023-01-27T05:45:31.752Z,91.12
2023-01-27T05:50:34.863Z,91.22
2023-01-27T05:55:37.870Z,91.22
2023-01-27T06:00:41.078Z,91.23
2023-01-27T06:05:55.964Z,91.25
2023-01-27T06:10:59.983Z,91.27
2023-01-27T06:16:03.728Z,91.26
2023-01-27T06:21:07.934Z,91.34
2023-01-27T06:26:13.029Z,91.29
2023-01-27T06:31:17.415Z,91.10
2023-01-27T06:36:21.248Z,91.02
2023-01-27T06:41:25.177Z,91.06
2023-01-27T06:46:28.218Z,91.13
2023-01-27T06:51:31.229Z,91.22
2023-01-27T06:56:34.281Z,91.30
2023-01-27T07:01:37.609Z,91.29
2023-01-27T07:06:40.902Z,91.30
2023-01-27T07:11:45.233Z,91.14
2023-01-27T07:16:48.849Z,91.07
2023-01-27T07:21:51.954Z,91.02
2023-01-27T07:26:55.265Z,90.99
2023-01-27T07:31:58.393Z,90.93
2023-01-27T07:37:01.986Z,90.88
2023-01-27T07:42:05.911Z,90.83
2023-01-27T07:47:09.387Z,90.76
2023-01-27T07:52:12.431Z,90.53
2023-01-27T07:57:15.534Z,90.50
2023-01-27T08:02:18.538Z,90.49
2023-01-27T08:07:21.641Z,90.33
2023-01-27T08:12:24.646Z,90.31
2023-01-27T08:17:27.959Z,90.18
2023-01-27T08:22:30.859Z,90.07
2023-01-27T08:27:34.066Z,89.93
2023-01-27T08:32:37.271Z,89.90
2023-01-27T08:37:40.383Z,89.95
2023-01-27T08:42:43.593Z,90.00
2023-01-27T08:47:46.486Z,90.02
2023-01-27T08:52:49.591Z,90.01
2023-01-27T08:57:52.492Z,89.82
2023-01-27T09:02:55.940Z,89.45
2023-01-27T09:07:59.318Z,89.63
2023-01-27T09:13:02.529Z,89.68
2023-01-27T09:18:06.733Z,89.52
2023-01-27T09:23:10.477Z,89.48
2023-01-27T09:28:19.728Z,89.31
2023-01-27T09:33:23.347Z,89.09
2023-01-27T09:38:28.808Z,89.11
2023-01-27T09:43:52.087Z,89.02
2023-01-27T09:49:06.046Z,88.99
2023-01-27T09:54:27.692Z,88.93
2023-01-27T10:00:00.082Z,88.88
2023-01-27T10:05:24.175Z,88.92
2023-01-27T10:10:33.317Z,88.90
2023-01-27T10:15:44.103Z,88.65
2023-01-27T10:21:01.351Z,88.57
2023-01-27T10:26:08.746Z,88.23
2023-01-27T10:31:16.567Z,87.71
2023-01-27T10:36:23.043Z,87.82
2023-01-27T10:41:35.161Z,87.50
2023-01-27T10:46:41.369Z,86.63
2023-01-27T10:51:50.391Z,86.87
2023-01-27T10:57:03.138Z,86.79
2023-01-27T11:02:10.210Z,86.82
2023-01-27T11:07:21.321Z,86.82
2023-01-27T11:12:35.884Z,86.97
2023-01-27T11:17:45.484Z,86.13
2023-01-27T11:22:54.448Z,86.13
2023-01-27T11:28:37.759Z,85.72
2023-01-27T11:33:45.302Z,85.93
2023-01-27T11:38:48.864Z,86.01
2023-01-27T11:43:52.579Z,85.93
2023-01-27T11:48:58.243Z,86.24
2023-01-27T11:54:19.787Z,85.95
2023-01-27T11:59:26.177Z,85.11
2023-01-27T12:04:50.018Z,85.38
2023-01-27T12:09:53.060Z,86.03
2023-01-27T12:14:57.873Z,86.29
2023-01-27T12:20:05.532Z,86.40
2023-01-27T12:25:20.808Z,85.26
2023-01-27T12:30:29.140Z,84.99
2023-01-27T12:35:36.145Z,85.27
2023-01-27T12:40:41.286Z,85.46
2023-01-27T12:45:45.206Z,85.35
2023-01-27T12:50:51.293Z,85.74
2023-01-27T12:56:05.043Z,86.15
2023-01-27T13:01:25.350Z,86.55
2023-01-27T13:06:34.190Z,86.78
2023-01-27T13:11:39.855Z,86.94
2023-01-27T13:16:52.801Z,87.03
2023-01-27T13:21:56.735Z,87.12
2023-01-27T13:27:02.384Z,87.24
2023-01-27T13:32:10.201Z,87.37
2023-01-27T13:37:37.780Z,87.39
2023-01-27T13:42:44.260Z,87.38
2023-01-27T13:47:52.191Z,87.24
2023-01-27T13:52:57.340Z,86.94
2023-01-27T13:58:08.535Z,87.00
2023-01-27T14:03:23.540Z,86.86
2023-01-27T14:08:46.494Z,86.72
2023-01-27T14:14:04.752Z,87.00
2023-01-27T14:19:21.690Z,87.09
2023-01-27T14:24:30.359Z,87.18
2023-01-27T14:29:53.604Z,87.23
2023-01-27T14:35:18.919Z,87.32
2023-01-27T14:40:28.589Z,87.40
2023-01-27T14:45:37.626Z,87.33
2023-01-27T14:50:50.540Z,87.03
2023-01-27T14:55:54.077Z,86.60
2023-01-27T15:00:57.611Z,86.42
2023-01-27T15:06:17.083Z,85.92
2023-01-27T15:23:02.963Z,85.80
2023-01-27T15:28:15.497Z,86.15
2023-01-27T15:33:44.929Z,86.07
2023-01-27T15:39:09.962Z,85.90
2023-01-27T15:44:17.238Z,85.76
2023-01-27T15:49:23.416Z,85.63
2023-01-27T15:54:31.962Z,85.05
2023-01-27T15:59:58.751Z,84.40
2023-01-27T16:05:19.087Z,82.98
2023-01-27T16:10:25.243Z,83.46
2023-01-27T16:15:35.394Z,83.53
2023-01-27T16:20:47.890Z,84.07
2023-01-27T16:26:09.715Z,84.21
2023-01-27T16:31:31.411Z,83.71
2023-01-27T16:36:36.894Z,83.69
2023-01-27T16:41:47.260Z,83.83
2023-01-27T16:47:05.114Z,83.89
2023-01-27T16:52:21.328Z,84.16
2023-01-27T16:57:30.714Z,83.99
2023-01-27T17:02:36.252Z,84.27
2023-01-27T17:07:40.896Z,84.20
2023-01-27T17:12:50.911Z,84.07
2023-01-27T17:17:54.238Z,83.77
2023-01-27T17:22:58.446Z,84.06
2023-01-27T17:28:07.428Z,83.71
2023-01-27T17:33:21.149Z,83.44
2023-01-27T17:38:45.245Z,83.15
2023-01-27T17:43:49.270Z,82.93
2023-01-27T17:49:17.669Z,83.44
2023-01-27T17:54:22.017Z,83.77
2023-01-27T17:59:27.198Z,83.55
2023-01-27T18:04:37.226Z,83.04
2023-01-27T18:09:45.913Z,83.05
2023-01-27T18:14:49.070Z,83.32
2023-01-27T18:19:53.196Z,83.36
2023-01-27T18:25:09.101Z,83.56
2023-01-27T18:30:20.091Z,83.51
2023-01-27T18:35:26.382Z,83.49
2023-01-27T18:40:34.376Z,83.52
2023-01-27T18:45:37.812Z,83.69
2023-01-27T18:50:45.801Z,83.81
2023-01-27T18:55:49.241Z,83.91
2023-01-27T19:00:56.874Z,84.03
2023-01-27T19:06:00.580Z,84.10
2023-01-27T19:11:06.029Z,84.20
2023-01-27T19:16:15.868Z,84.25
2023-01-27T19:21:21.048Z,84.30
2023-01-27T19:26:24.463Z,84.33
2023-01-27T19:31:28.315Z,84.40
2023-01-27T19:36:39.087Z,84.41
2023-01-27T19:41:43.784Z,84.45
2023-01-27T19:46:47.383Z,84.53
2023-01-27T19:51:51.780Z,84.62
2023-01-27T19:56:55.184Z,84.62
2023-01-27T20:01:58.575Z,84.64
2023-01-27T20:07:02.317Z,84.73
2023-01-27T20:12:06.240Z,84.80
2023-01-27T20:17:09.446Z,84.81
2023-01-27T20:22:13.837Z,84.84
2023-01-27T20:27:17.395Z,84.79
2023-01-27T20:32:24.398Z,84.82
2023-01-27T20:37:28.213Z,84.79
2023-01-27T20:42:31.532Z,84.80
2023-01-27T20:47:35.145Z,84.88
2023-01-27T20:52:39.387Z,84.94
2023-01-27T20:57:42.995Z,85.01
2023-01-27T21:02:47.192Z,85.00
2023-01-27T21:07:50.230Z,85.01
2023-01-27T21:12:53.760Z,84.96
2023-01-27T21:17:57.364Z,84.92
2023-01-27T21:23:00.369Z,84.91
2023-01-27T21:28:03.534Z,84.88
2023-01-27T21:33:06.685Z,84.71
2023-01-27T21:38:09.887Z,84.72
2023-01-27T21:43:31.936Z,84.67
2023-01-27T21:48:35.509Z,84.69
2023-01-27T21:53:38.765Z,84.71
2023-01-27T21:58:42.489Z,84.68
2023-01-27T22:03:45.621Z,84.72
2023-01-27T22:08:52.587Z,84.71
2023-01-27T22:13:55.598Z,84.60
2023-01-27T22:18:58.799Z,84.47
2023-01-27T22:24:02.452Z,84.40
2023-01-27T22:29:06.030Z,84.45
2023-01-27T22:34:09.869Z,84.48
2023-01-27T22:39:13.167Z,84.43
2023-01-27T22:44:17.517Z,84.34
2023-01-27T22:49:20.604Z,84.44
2023-01-27T22:54:23.926Z,84.55
2023-01-27T22:59:27.640Z,84.57
2023-01-27T23:04:31.153Z,84.61
2023-01-27T23:09:34.173Z,84.57
2023-01-27T23:14:37.260Z,84.59
2023-01-27T23:19:40.570Z,84.65
2023-01-27T23:24:43.577Z,84.56
2023-01-27T23:29:46.786Z,84.59
2023-01-27T23:34:50.714Z,84.39
2023-01-27T23:39:53.924Z,84.41
2023-01-27T23:44:57.431Z,84.45
2023-01-27T23:50:00.550Z,84.51
2023-01-27T23:55:05.534Z,84.47
